Time;durP1;ratioP1;P1;durP2;ratioP2;P2;SDS_P1;SDS_P2;PMS_P1;PMS_P2;Temp;Humidity;BMP_temperature;BMP_pressure;BME280_temperature;BME280_humidity;BME280_pressure;Samples;Min_cycle;Max_cycle;Signal;HPM_P1;HPM_P2
2024/03/24 00:00:22;;;;;;;2.15;1.60;;;6.70;99.90;;;;;;5050282;28;20478;-54
2024/03/24 00:02:48;;;;;;;2.08;1.25;;;6.70;99.90;;;;;;5050293;28;20033;-56
2024/03/24 00:05:14;;;;;;;5.43;1.45;;;6.70;99.90;;;;;;5050723;28;20367;-57
2024/03/24 00:07:39;;;;;;;11.27;1.77;;;6.60;99.90;;;;;;5051399;28;20021;-54
2024/03/24 00:10:06;;;;;;;2.78;1.60;;;6.60;99.90;;;;;;5051177;28;20434;-52
2024/03/24 00:12:31;;;;;;;2.10;1.30;;;6.60;99.90;;;;;;5051881;28;20095;-54
2024/03/24 00:14:57;;;;;;;3.22;1.10;;;6.60;99.90;;;;;;5048590;28;20145;-52
2024/03/24 00:17:23;;;;;;;1.52;1.30;;;6.60;99.90;;;;;;5044410;28;20025;-59
2024/03/24 00:19:48;;;;;;;8.27;2.10;;;6.60;99.90;;;;;;5040650;28;20056;-53
2024/03/24 00:22:14;;;;;;;3.25;1.90;;;6.60;99.90;;;;;;5045395;28;20061;-55
2024/03/24 00:24:39;;;;;;;1.95;1.38;;;6.60;99.90;;;;;;5047950;28;20599;-55
2024/03/24 00:27:05;;;;;;;5.05;1.85;;;6.70;99.90;;;;;;5052991;28;20378;-54
2024/03/24 00:29:31;;;;;;;5.65;1.70;;;6.70;99.90;;;;;;5054968;28;20469;-53
2024/03/24 00:31:56;;;;;;;8.60;1.77;;;6.70;99.90;;;;;;5051116;28;20037;-51
2024/03/24 00:34:22;;;;;;;6.90;1.77;;;6.70;99.90;;;;;;5047378;28;20044;-55
2024/03/24 00:36:48;;;;;;;4.07;1.85;;;6.60;99.90;;;;;;5053090;28;20104;-55
2024/03/24 00:39:13;;;;;;;3.38;1.70;;;6.70;99.90;;;;;;5054386;28;20392;-52
2024/03/24 00:41:39;;;;;;;4.47;2.13;;;6.70;99.90;;;;;;5054854;28;20535;-53
2024/03/24 00:44:05;;;;;;;5.65;2.35;;;6.70;99.90;;;;;;5054633;28;20107;-51
2024/03/24 00:46:31;;;;;;;10.95;3.05;;;6.70;99.90;;;;;;5044521;28;20037;-55
2024/03/24 00:48:57;;;;;;;7.05;2.22;;;6.80;99.90;;;;;;5034931;28;20034;-52
2024/03/24 00:51:23;;;;;;;6.68;2.40;;;6.90;99.90;;;;;;5034981;28;20083;-56
2024/03/24 00:53:48;;;;;;;9.85;2.83;;;6.80;99.90;;;;;;5048236;28;20021;-42
2024/03/24 00:56:14;;;;;;;8.02;1.88;;;6.80;99.90;;;;;;5054462;28;20104;-41
2024/03/24 00:58:40;;;;;;;3.75;1.92;;;6.70;99.90;;;;;;5054715;28;20032;-48
2024/03/24 01:01:06;;;;;;;3.65;2.20;;;6.70;99.90;;;;;;5054449;28;20028;-40
2024/03/24 01:03:32;;;;;;;9.93;1.63;;;6.70;99.90;;;;;;5048543;28;20102;-42
2024/03/24 01:05:58;;;;;;;10.02;1.67;;;6.70;99.90;;;;;;5054379;28;20071;-44
2024/03/24 01:08:23;;;;;;;7.07;2.05;;;6.80;99.90;;;;;;5053406;28;20084;-40
2024/03/24 01:10:49;;;;;;;6.05;1.60;;;6.80;99.90;;;;;;5054044;28;20028;-40
2024/03/24 01:13:15;;;;;;;7.30;1.10;;;6.80;99.90;;;;;;5053299;28;20029;-44
2024/03/24 01:15:45;;;;;;;14.82;2.63;;;6.80;99.90;;;;;;5053588;28;20048;-43
2024/03/24 01:18:11;;;;;;;5.03;1.52;;;6.80;99.90;;;;;;5054129;28;20087;-40
2024/03/24 01:20:36;;;;;;;1.65;1.30;;;6.90;99.90;;;;;;5034282;28;20033;-41
2024/03/24 01:23:02;;;;;;;1.90;1.50;;;6.90;99.90;;;;;;5043781;28;20033;-47
2024/03/24 01:25:28;;;;;;;7.05;1.60;;;6.80;99.90;;;;;;5054325;28;20091;-46
2024/03/24 01:27:53;;;;;;;3.88;1.42;;;6.90;99.90;;;;;;5053925;28;20033;-44
2024/03/24 01:30:19;;;;;;;4.57;1.95;;;6.90;99.90;;;;;;5052613;28;20040;-40
2024/03/24 01:32:45;;;;;;;8.63;1.88;;;6.90;99.90;;;;;;5054220;28;20066;-44
2024/03/24 01:35:10;;;;;;;8.65;2.22;;;6.90;99.90;;;;;;5053319;28;20447;-43
2024/03/24 01:37:37;;;;;;;9.90;2.30;;;6.90;99.90;;;;;;5052326;28;20025;-41
2024/03/24 01:40:03;;;;;;;11.20;2.05;;;6.90;99.90;;;;;;5053392;28;20033;-43
2024/03/24 01:42:28;;;;;;;10.57;2.30;;;6.90;99.90;;;;;;5053833;28;20036;-41
2024/03/24 01:44:54;;;;;;;6.88;2.35;;;7.00;99.90;;;;;;5048757;28;20025;-42
2024/03/24 01:47:20;;;;;;;13.77;1.95;;;7.00;99.90;;;;;;5050825;28;20104;-47
2024/03/24 01:49:46;;;;;;;9.43;2.30;;;7.00;99.90;;;;;;5052903;28;20097;-41
2024/03/24 01:52:14;;;;;;;3.88;1.88;;;7.10;99.90;;;;;;5053019;28;20021;-43
2024/03/24 01:54:40;;;;;;;7.80;1.80;;;7.10;99.90;;;;;;5052648;28;20025;-44
2024/03/24 01:57:06;;;;;;;6.10;1.70;;;7.10;99.90;;;;;;5052550;28;20039;-40
2024/03/24 01:59:35;;;;;;;15.90;2.10;;;7.00;99.90;;;;;;5054493;28;20029;-44
2024/03/24 02:02:01;;;;;;;4.75;1.95;;;6.90;99.90;;;;;;5045092;28;20449;-40
2024/03/24 02:04:27;;;;;;;9.82;2.50;;;6.80;99.90;;;;;;5049774;28;20025;-41
2024/03/24 02:06:52;;;;;;;10.68;2.95;;;6.80;99.90;;;;;;5051741;28;20469;-38
2024/03/24 02:09:18;;;;;;;9.50;2.10;;;6.80;99.90;;;;;;5052395;28;20103;-44
2024/03/24 02:11:44;;;;;;;6.35;2.25;;;6.90;99.90;;;;;;5048554;28;20449;-37
2024/03/24 02:14:10;;;;;;;14.93;2.22;;;6.90;99.90;;;;;;5042489;28;20029;-37
2024/03/24 02:16:36;;;;;;;16.73;1.90;;;6.80;99.90;;;;;;5052719;28;20458;-35
2024/03/24 02:19:04;;;;;;;15.40;2.28;;;6.80;99.90;;;;;;5051934;28;20028;-38
2024/03/24 02:21:31;;;;;;;10.13;2.22;;;6.90;99.90;;;;;;5053141;28;20520;-41
2024/03/24 02:23:56;;;;;;;1.90;1.67;;;6.90;99.90;;;;;;5051861;28;20108;-37
2024/03/24 02:26:22;;;;;;;15.13;2.45;;;6.90;99.90;;;;;;5051702;28;20103;-37
2024/03/24 02:28:48;;;;;;;7.70;1.90;;;6.80;99.90;;;;;;5051313;28;20378;-42
2024/03/24 02:31:15;;;;;;;6.32;1.92;;;6.80;99.90;;;;;;5037025;28;20375;-37
2024/03/24 02:33:41;;;;;;;12.57;2.53;;;6.70;99.90;;;;;;5032769;28;20036;-39
2024/03/24 02:36:08;;;;;;;18.48;2.25;;;6.70;99.90;;;;;;5051505;28;20029;-41
2024/03/24 02:38:33;;;;;;;12.20;2.80;;;6.70;99.90;;;;;;5051890;28;20056;-37
2024/03/24 02:40:59;;;;;;;11.10;1.70;;;6.60;99.90;;;;;;5052031;28;20067;-36
2024/03/24 02:43:25;;;;;;;13.80;3.20;;;6.60;99.90;;;;;;5050844;28;20024;-38
2024/03/24 02:45:57;;;;;;;11.10;1.70;;;6.60;99.90;;;;;;5052705;28;20169;-38
2024/03/24 02:48:23;;;;;;;4.18;1.30;;;6.50;99.90;;;;;;5052498;28;20054;-39
2024/03/24 02:50:49;;;;;;;7.70;1.60;;;6.40;99.90;;;;;;5051823;28;20063;-39
2024/03/24 02:53:14;;;;;;;12.45;2.25;;;6.40;99.90;;;;;;5052171;28;20058;-39
2024/03/24 02:55:47;;;;;;;8.77;2.30;;;6.50;99.90;;;;;;5049480;28;20028;-37
2024/03/24 02:58:13;;;;;;;11.15;2.95;;;6.60;99.90;;;;;;5051587;28;20033;-36
2024/03/24 03:00:39;;;;;;;16.92;5.03;;;6.60;99.90;;;;;;5052293;28;20474;-37
2024/03/24 03:03:04;;;;;;;7.22;2.72;;;6.60;99.90;;;;;;5047236;28;20028;-37
2024/03/24 03:05:30;;;;;;;16.52;3.88;;;6.60;99.90;;;;;;5045885;28;20029;-44
2024/03/24 03:07:56;;;;;;;19.88;3.38;;;6.60;99.90;;;;;;5052362;28;20433;-44
2024/03/24 03:10:21;;;;;;;21.42;3.38;;;6.70;99.90;;;;;;5051556;28;20036;-38
2024/03/24 03:12:47;;;;;;;12.32;3.00;;;6.80;99.90;;;;;;5051692;28;20029;-53
2024/03/24 03:15:15;;;;;;;10.20;2.30;;;6.80;99.90;;;;;;5046619;28;20041;-53
2024/03/24 03:17:41;;;;;;;;;;;6.50;99.90;;;;;;5033108;28;20494;-53
2024/03/24 03:20:08;;;;;;;2.45;0.80;;;6.20;99.90;;;;;;5049129;28;19909;-39
2024/03/24 03:22:34;;;;;;;2.05;0.80;;;5.80;99.90;;;;;;5051472;28;20109;-39
2024/03/24 03:24:59;;;;;;;0.55;0.50;;;5.60;99.90;;;;;;5043760;28;20104;-37
2024/03/24 03:27:25;;;;;;;3.92;0.75;;;5.40;99.90;;;;;;5041548;28;20021;-37
2024/03/24 03:29:51;;;;;;;7.82;0.60;;;5.40;99.90;;;;;;5051721;28;20025;-37
2024/03/24 03:32:16;;;;;;;1.67;0.60;;;5.30;99.90;;;;;;5051530;28;20547;-36
2024/03/24 03:34:42;;;;;;;6.03;1.42;;;5.30;99.90;;;;;;5047976;28;20091;-41
2024/03/24 03:37:08;;;;;;;2.38;0.75;;;5.30;99.90;;;;;;5043263;28;20029;-53
2024/03/24 03:39:34;;;;;;;1.13;0.63;;;5.30;99.90;;;;;;5051758;28;20485;-36
2024/03/24 03:42:00;;;;;;;7.85;1.42;;;5.30;99.90;;;;;;5051620;28;20033;-36
2024/03/24 03:44:25;;;;;;;0.88;0.52;;;5.40;99.90;;;;;;5050782;28;20025;-36
2024/03/24 03:46:51;;;;;;;2.83;0.80;;;5.40;99.90;;;;;;5051189;28;20025;-36
2024/03/24 03:49:17;;;;;;;0.98;0.40;;;5.40;99.90;;;;;;5051023;28;20036;-35
2024/03/24 03:51:44;;;;;;;1.08;0.22;;;5.40;99.90;;;;;;5051429;28;20393;-38
2024/03/24 03:54:11;;;;;;;6.07;0.90;;;5.40;99.90;;;;;;5046362;28;20029;-35
2024/03/24 03:56:37;;;;;;;6.40;0.52;;;5.50;99.90;;;;;;5045763;28;20413;-35
2024/03/24 03:59:03;;;;;;;1.40;0.70;;;5.50;99.90;;;;;;5052125;28;20018;-34
2024/03/24 04:01:28;;;;;;;2.38;0.68;;;5.40;99.90;;;;;;5051345;28;20141;-36
2024/03/24 04:03:54;;;;;;;4.25;1.17;;;5.40;99.90;;;;;;5055089;28;20428;-40
2024/03/24 04:06:20;;;;;;;1.48;0.70;;;5.40;99.90;;;;;;5055121;28;20025;-40
2024/03/24 04:08:46;;;;;;;2.45;0.60;;;5.50;99.90;;;;;;5055458;28;20017;-35
2024/03/24 04:11:12;;;;;;;2.25;0.43;;;5.40;99.90;;;;;;5044709;28;20056;-35
2024/03/24 04:13:37;;;;;;;9.23;0.80;;;5.40;99.90;;;;;;5051758;28;20466;-34
2024/03/24 04:16:06;;;;;;;5.55;0.75;;;5.40;99.90;;;;;;5055547;28;20103;-35
2024/03/24 04:18:32;;;;;;;3.25;0.60;;;5.40;99.90;;;;;;5054896;28;20395;-34
2024/03/24 04:21:01;;;;;;;2.00;0.50;;;5.40;99.90;;;;;;5054333;28;20028;-37
2024/03/24 04:23:26;;;;;;;3.50;0.52;;;5.40;99.90;;;;;;5055160;28;20539;-35
2024/03/24 04:25:55;;;;;;;2.40;0.63;;;5.40;99.90;;;;;;5054930;28;20025;-36
2024/03/24 04:28:21;;;;;;;2.85;0.55;;;5.40;99.90;;;;;;5054277;28;20029;-35
2024/03/24 04:30:47;;;;;;;0.82;0.60;;;5.40;99.90;;;;;;5035392;28;20364;-35
2024/03/24 04:33:12;;;;;;;1.17;0.60;;;5.40;99.90;;;;;;5035349;28;20478;-46
2024/03/24 04:35:38;;;;;;;3.17;0.40;;;5.50;99.90;;;;;;5035358;28;20048;-36
2024/03/24 04:38:04;;;;;;;7.40;1.65;;;5.40;99.90;;;;;;5035340;28;20470;-41
2024/03/24 04:40:30;;;;;;;5.70;0.68;;;5.40;99.90;;;;;;5041059;28;20033;-37
2024/03/24 04:42:55;;;;;;;2.58;0.82;;;5.50;99.90;;;;;;5053529;28;20461;-36
2024/03/24 04:45:21;;;;;;;1.23;0.80;;;5.40;99.90;;;;;;5055014;28;20108;-38
2024/03/24 04:47:47;;;;;;;7.93;0.80;;;5.40;99.90;;;;;;5054683;28;20021;-36
2024/03/24 04:50:13;;;;;;;9.93;1.10;;;5.40;99.90;;;;;;5051273;28;20557;-61
2024/03/24 04:52:38;;;;;;;1.10;0.47;;;5.40;99.90;;;;;;5054876;28;20100;-53
2024/03/24 04:55:04;;;;;;;1.42;0.70;;;5.50;99.90;;;;;;5054810;28;20032;-56
2024/03/24 04:57:30;;;;;;;3.15;1.13;;;5.50;99.90;;;;;;5054515;28;20033;-54
2024/03/24 04:59:55;;;;;;;7.63;1.52;;;5.50;99.90;;;;;;5039104;28;20288;-50
2024/03/24 05:02:21;;;;;;;0.90;0.80;;;5.50;99.90;;;;;;5047366;28;20466;-37
2024/03/24 05:04:49;;;;;;;5.20;0.93;;;5.50;99.90;;;;;;5050136;28;20025;-37
2024/03/24 05:07:15;;;;;;;7.40;1.13;;;5.50;99.90;;;;;;5053448;28;20028;-37
2024/03/24 05:09:41;;;;;;;6.25;1.25;;;5.60;99.90;;;;;;5049957;28;20025;-36
2024/03/24 05:12:07;;;;;;;4.30;1.38;;;5.60;99.90;;;;;;5054084;28;20060;-46
2024/03/24 05:14:33;;;;;;;1.77;1.27;;;5.60;99.90;;;;;;5044306;28;20158;-37
2024/03/24 05:17:00;;;;;;;9.80;2.07;;;5.70;99.90;;;;;;5050316;28;20145;-42
2024/03/24 05:19:26;;;;;;;4.40;1.40;;;5.70;99.90;;;;;;5052570;28;20145;-42
2024/03/24 05:21:51;;;;;;;7.97;2.13;;;5.80;99.90;;;;;;5053747;28;20171;-36
2024/03/24 05:24:17;;;;;;;8.07;2.20;;;5.90;99.90;;;;;;5046673;28;20025;-37
2024/03/24 05:26:43;;;;;;;3.92;1.48;;;5.80;99.90;;;;;;5045581;28;20547;-56
2024/03/24 05:29:09;;;;;;;3.88;1.13;;;5.70;99.90;;;;;;5052889;28;20067;-50
2024/03/24 05:31:34;;;;;;;2.95;0.88;;;5.50;99.90;;;;;;5051919;28;20021;-54
2024/03/24 05:34:00;;;;;;;5.43;1.25;;;5.40;99.90;;;;;;5052686;28;20043;-49
2024/03/24 05:36:27;;;;;;;5.13;1.13;;;5.50;99.90;;;;;;5053280;28;20021;-54
2024/03/24 05:38:53;;;;;;;6.88;1.30;;;5.50;99.90;;;;;;5047178;28;20017;-49
2024/03/24 05:41:19;;;;;;;6.55;1.30;;;5.20;99.90;;;;;;5051505;28;20048;-47
2024/03/24 05:43:44;;;;;;;7.32;1.08;;;5.10;99.90;;;;;;5043155;28;20022;-52
2024/03/24 05:46:10;;;;;;;5.35;1.52;;;4.90;99.90;;;;;;5049057;28;20583;-52
2024/03/24 05:48:35;;;;;;;3.78;1.33;;;4.90;99.90;;;;;;5052921;28;20028;-52
2024/03/24 05:51:02;;;;;;;7.55;1.65;;;4.90;99.90;;;;;;5047995;28;20017;-51
2024/03/24 05:53:28;;;;;;;13.77;2.05;;;5.00;99.90;;;;;;5052749;28;20494;-48
2024/03/24 05:55:57;;;;;;;5.03;1.75;;;5.00;99.90;;;;;;5041059;28;20366;-52
2024/03/24 05:58:23;;;;;;;4.45;1.50;;;5.00;99.90;;;;;;5053296;28;20113;-35
2024/03/24 06:00:48;;;;;;;5.22;1.85;;;5.10;99.90;;;;;;5052798;28;20523;-36
2024/03/24 06:03:14;;;;;;;8.75;1.33;;;5.10;99.90;;;;;;5053106;28;20025;-36
2024/03/24 06:05:40;;;;;;;7.00;2.40;;;5.10;99.90;;;;;;5048512;28;20025;-36
2024/03/24 06:08:09;;;;;;;8.45;1.50;;;5.20;99.90;;;;;;5053351;28;20547;-35
2024/03/24 06:10:41;;;;;;;4.95;1.27;;;5.20;99.90;;;;;;5052841;28;20032;-36
2024/03/24 06:13:07;;;;;;;3.45;1.23;;;5.30;99.90;;;;;;5052054;28;20042;-36
2024/03/24 06:15:32;;;;;;;3.63;1.45;;;5.30;99.90;;;;;;5052139;28;20044;-53
2024/03/24 06:18:04;;;;;;;6.18;1.27;;;5.40;99.90;;;;;;5052261;28;20106;-54
2024/03/24 06:20:33;;;;;;;3.92;1.60;;;5.40;99.90;;;;;;5053401;28;20504;-53
2024/03/24 06:23:03;;;;;;;5.18;1.35;;;5.50;99.90;;;;;;5037547;28;20030;-49
2024/03/24 06:25:29;;;;;;;5.55;2.25;;;5.50;99.90;;;;;;5033177;28;20029;-54
2024/03/24 06:27:56;;;;;;;7.90;1.90;;;5.60;99.90;;;;;;5049470;28;20021;-53
2024/03/24 06:30:22;;;;;;;5.63;1.55;;;5.60;99.90;;;;;;5052425;28;20416;-53
2024/03/24 06:32:48;;;;;;;5.07;1.77;;;5.70;99.90;;;;;;5050879;28;20041;-53
2024/03/24 06:35:14;;;;;;;14.18;1.67;;;5.70;99.90;;;;;;5041178;28;20083;-53
2024/03/24 06:37:40;;;;;;;7.03;2.45;;;5.80;99.90;;;;;;5043470;28;20494;-52
2024/03/24 06:40:10;;;;;;;12.90;2.30;;;5.80;99.90;;;;;;5046433;28;20025;-53
2024/03/24 06:42:59;;;;;;;9.45;2.20;;;5.90;99.90;;;;;;5051873;28;20024;-53
2024/03/24 06:45:28;;;;;;;17.65;2.70;;;5.90;99.90;;;;;;5037477;28;20033;-37
2024/03/24 06:47:55;;;;;;;15.85;3.25;;;6.00;99.90;;;;;;5051618;28;20048;-36
2024/03/24 06:50:21;;;;;;;15.05;2.88;;;6.10;99.90;;;;;;5041485;28;20453;-37
2024/03/24 06:52:46;;;;;;;12.35;2.75;;;6.20;99.90;;;;;;5043112;28;20120;-36
2024/03/24 06:55:12;;;;;;;28.45;3.67;;;6.20;99.90;;;;;;5015128;28;20025;-35
2024/03/24 06:57:37;;;;;;;18.30;4.07;;;6.20;99.90;;;;;;5051025;28;20029;-36
2024/03/24 07:00:04;;;;;;;14.50;2.35;;;6.20;99.90;;;;;;5037562;28;20454;-36
2024/03/24 07:02:29;;;;;;;7.05;1.30;;;6.00;99.90;;;;;;5050383;28;20040;-34
2024/03/24 07:04:57;;;;;;;12.50;1.70;;;5.90;99.90;;;;;;5051932;28;20381;-37
2024/03/24 07:07:22;;;;;;;14.20;2.35;;;5.70;99.90;;;;;;5051687;28;20408;-34
2024/03/24 07:09:48;;;;;;;9.85;2.80;;;5.60;99.90;;;;;;5052263;28;20025;-34
2024/03/24 07:12:13;;;;;;;15.35;2.80;;;5.60;99.90;;;;;;5050903;28;20021;-34
2024/03/24 07:14:39;;;;;;;11.43;2.30;;;5.70;99.90;;;;;;5051586;28;20132;-35
2024/03/24 07:17:05;;;;;;;15.25;2.53;;;5.80;99.90;;;;;;5050484;28;20354;-36
2024/03/24 07:19:30;;;;;;;19.15;3.40;;;5.90;99.90;;;;;;5044877;28;20033;-35
2024/03/24 07:21:56;;;;;;;28.95;3.33;;;6.10;99.90;;;;;;5038756;28;20017;-35
2024/03/24 07:24:22;;;;;;;14.50;3.20;;;6.10;99.90;;;;;;5051318;28;20424;-35
2024/03/24 07:26:47;;;;;;;13.43;2.67;;;6.20;99.90;;;;;;5051502;28;20021;-36
2024/03/24 07:29:13;;;;;;;19.92;3.90;;;6.30;99.90;;;;;;5050969;28;20525;-35
2024/03/24 07:31:38;;;;;;;12.60;2.22;;;6.30;99.90;;;;;;5050017;28;20345;-36
2024/03/24 07:34:04;;;;;;;19.73;3.50;;;6.30;99.90;;;;;;5044318;28;20034;-35
2024/03/24 07:36:30;;;;;;;15.52;3.10;;;6.30;99.90;;;;;;5045772;28;20434;-34
2024/03/24 07:38:55;;;;;;;19.83;3.35;;;6.40;99.90;;;;;;5044960;28;20052;-34
2024/03/24 07:41:21;;;;;;;14.70;4.25;;;6.40;99.90;;;;;;5050684;28;20067;-35
2024/03/24 07:43:48;;;;;;;19.55;3.13;;;6.40;99.90;;;;;;5050964;28;20025;-33
2024/03/24 07:46:15;;;;;;;10.52;2.38;;;6.40;99.90;;;;;;5049574;28;20090;-33
2024/03/24 07:48:41;;;;;;;12.55;2.72;;;6.30;99.90;;;;;;5051370;28;20029;-33
2024/03/24 07:51:06;;;;;;;5.15;1.50;;;6.20;99.90;;;;;;5047250;28;20115;-50
2024/03/24 07:53:32;;;;;;;3.58;1.33;;;6.20;99.90;;;;;;5039992;28;20038;-47
2024/03/24 07:55:57;;;;;;;8.82;1.77;;;5.80;99.90;;;;;;5046033;28;20560;-33
2024/03/24 07:58:23;;;;;;;7.07;2.15;;;5.70;99.90;;;;;;5050915;28;20036;-33
2024/03/24 08:00:50;;;;;;;10.73;1.70;;;5.60;99.90;;;;;;5051467;28;20477;-33
2024/03/24 08:03:15;;;;;;;6.13;2.08;;;5.70;99.90;;;;;;5043600;28;20038;-33
2024/03/24 08:05:41;;;;;;;6.68;1.98;;;5.70;99.90;;;;;;5035172;28;20036;-35
2024/03/24 08:08:07;;;;;;;12.27;2.25;;;5.80;99.90;;;;;;5049028;28;20473;-32
2024/03/24 08:10:32;;;;;;;13.85;2.70;;;6.00;99.90;;;;;;5049822;28;20025;-33
2024/03/24 08:12:58;;;;;;;2.67;1.58;;;6.10;99.90;;;;;;5051277;28;20107;-34
2024/03/24 08:15:24;;;;;;;7.03;2.85;;;6.20;99.90;;;;;;5049070;28;20572;-34
2024/03/24 08:17:50;;;;;;;12.70;2.53;;;6.40;99.90;;;;;;5044119;28;20029;-35
2024/03/24 08:20:15;;;;;;;7.30;2.20;;;6.40;99.90;;;;;;5031846;28;20037;-35
2024/03/24 08:22:41;;;;;;;14.30;2.28;;;6.40;99.90;;;;;;5032049;28;20041;-33
2024/03/24 08:25:07;;;;;;;11.38;2.25;;;6.30;99.90;;;;;;5049605;28;20497;-37
2024/03/24 08:27:33;;;;;;;15.93;2.03;;;6.20;99.90;;;;;;5050340;28;20470;-34
2024/03/24 08:29:59;;;;;;;3.58;1.38;;;6.10;99.90;;;;;;5045869;28;20028;-34
2024/03/24 08:32:24;;;;;;;4.45;1.13;;;6.10;99.90;;;;;;5046292;28;20017;-34
2024/03/24 08:34:51;;;;;;;3.33;1.30;;;6.00;99.90;;;;;;5051180;28;20107;-33
2024/03/24 08:37:17;;;;;;;3.30;1.48;;;5.90;99.90;;;;;;5044617;28;20076;-34
2024/03/24 08:39:42;;;;;;;11.95;2.00;;;5.90;99.90;;;;;;5045031;28;20428;-34
2024/03/24 08:42:08;;;;;;;11.95;1.83;;;5.90;99.90;;;;;;5041492;28;20029;-34
2024/03/24 08:44:34;;;;;;;17.25;3.55;;;6.00;99.90;;;;;;5039954;28;20384;-35
2024/03/24 08:47:00;;;;;;;7.07;2.30;;;6.10;99.90;;;;;;5045553;28;20456;-34
2024/03/24 08:49:26;;;;;;;13.93;2.35;;;6.20;99.90;;;;;;5047073;28;20032;-34
2024/03/24 08:51:52;;;;;;;10.73;1.88;;;6.40;99.90;;;;;;5053359;28;20025;-33
2024/03/24 08:54:18;;;;;;;17.02;2.63;;;6.50;99.90;;;;;;5052297;28;20028;-34
2024/03/24 08:56:43;;;;;;;15.63;2.42;;;6.50;99.90;;;;;;5052831;28;20108;-34
2024/03/24 08:59:09;;;;;;;9.43;2.53;;;6.60;99.90;;;;;;5052268;28;20021;-33
2024/03/24 09:01:35;;;;;;;6.75;1.52;;;6.50;99.90;;;;;;5051989;28;20066;-32
2024/03/24 09:04:01;;;;;;;3.75;1.02;;;6.30;99.90;;;;;;5054518;28;20508;-33
2024/03/24 09:06:27;;;;;;;0.68;0.35;;;5.90;99.90;;;;;;5043617;28;20087;-33
2024/03/24 09:08:52;;;;;;;3.30;0.70;;;5.70;99.90;;;;;;5054405;28;20394;-33
2024/03/24 09:11:18;;;;;;;5.35;1.00;;;5.80;99.90;;;;;;5046943;28;20009;-34
2024/03/24 09:13:44;;;;;;;7.35;1.00;;;5.90;99.90;;;;;;5054256;28;20033;-34
2024/03/24 09:16:10;;;;;;;5.97;0.82;;;6.00;99.90;;;;;;5051808;28;20033;-34
2024/03/24 09:18:36;;;;;;;8.10;1.83;;;6.00;99.90;;;;;;5053351;28;20033;-33
2024/03/24 09:21:10;;;;;;;2.30;0.55;;;6.00;99.90;;;;;;5052413;28;20464;-33
2024/03/24 09:23:36;;;;;;;6.70;0.98;;;6.10;99.90;;;;;;5054173;28;20466;-33
2024/03/24 09:26:02;;;;;;;3.78;0.90;;;6.20;99.90;;;;;;5054150;28;20021;-34
2024/03/24 09:28:27;;;;;;;11.57;1.00;;;6.40;99.90;;;;;;5046823;28;20104;-35
2024/03/24 09:31:01;;;;;;;11.75;1.38;;;6.40;99.90;;;;;;5052839;28;20100;-37
2024/03/24 09:33:27;;;;;;;1.10;0.45;;;6.50;99.90;;;;;;5053486;28;20036;-35
2024/03/24 09:35:53;;;;;;;3.60;0.60;;;6.60;99.90;;;;;;5050410;28;20024;-34
2024/03/24 09:38:19;;;;;;;5.25;1.25;;;6.80;99.90;;;;;;5043822;28;20029;-35
2024/03/24 09:40:47;;;;;;;9.80;0.88;;;6.90;99.90;;;;;;5053411;28;20033;-35
2024/03/24 09:43:14;;;;;;;8.88;0.80;;;6.90;99.90;;;;;;5048775;28;20101;-37
2024/03/24 09:45:40;;;;;;;8.05;1.45;;;6.90;99.90;;;;;;5053657;28;20516;-34
2024/03/24 09:48:11;;;;;;;7.05;1.67;;;6.90;99.90;;;;;;5051453;28;20025;-35
2024/03/24 09:50:38;;;;;;;10.75;1.35;;;6.90;99.90;;;;;;5037298;28;20036;-38
2024/03/24 09:53:04;;;;;;;2.10;1.30;;;6.90;99.90;;;;;;5045196;28;20040;-36
2024/03/24 09:55:30;;;;;;;6.65;1.85;;;6.80;99.90;;;;;;5049400;28;20025;-36
2024/03/24 09:57:56;;;;;;;11.27;1.88;;;6.90;99.90;;;;;;5053137;28;20469;-36
2024/03/24 10:00:23;;;;;;;10.57;1.42;;;6.90;99.90;;;;;;5052399;28;20500;-36
2024/03/24 10:02:52;;;;;;;9.52;1.77;;;7.00;99.90;;;;;;5053476;28;20040;-36
2024/03/24 10:05:18;;;;;;;10.73;1.55;;;7.00;99.90;;;;;;5042628;28;20497;-37
2024/03/24 10:07:45;;;;;;;4.82;1.35;;;7.10;99.90;;;;;;5052253;28;20385;-38
2024/03/24 10:10:12;;;;;;;15.55;1.67;;;7.20;99.90;;;;;;5053448;28;20056;-36
2024/03/24 10:12:37;;;;;;;5.57;1.25;;;7.20;99.90;;;;;;5052582;28;20074;-37
2024/03/24 10:15:20;;;;;;;14.85;1.65;;;7.20;99.90;;;;;;5051815;28;20485;-52
2024/03/24 10:17:46;;;;;;;15.63;1.83;;;7.20;99.90;;;;;;5052841;28;20052;-52
2024/03/24 10:20:13;;;;;;;11.63;1.90;;;7.30;99.90;;;;;;5053462;28;20389;-51
2024/03/24 10:22:39;;;;;;;19.63;2.38;;;7.50;99.90;;;;;;5048982;28;20025;-53
2024/03/24 10:25:11;;;;;;;15.07;2.05;;;7.50;99.90;;;;;;5053303;28;20075;-52
2024/03/24 10:27:38;;;;;;;15.80;2.40;;;7.60;99.90;;;;;;5051494;28;20029;-53
2024/03/24 10:30:04;;;;;;;24.60;2.40;;;7.60;99.90;;;;;;5052195;28;20386;-50
2024/03/24 10:32:31;;;;;;;6.68;2.03;;;7.50;99.90;;;;;;5052472;28;20105;-54
2024/03/24 10:35:00;;;;;;;7.35;2.28;;;7.60;99.90;;;;;;5056764;28;20033;-49
2024/03/24 10:37:27;;;;;;;15.05;3.30;;;7.60;99.90;;;;;;5040055;28;20405;-52
2024/03/24 10:39:53;;;;;;;17.80;1.60;;;7.60;99.90;;;;;;5054289;28;20028;-52
2024/03/24 10:42:19;;;;;;;6.78;1.63;;;7.50;99.90;;;;;;5048674;28;20108;-49
2024/03/24 10:44:46;;;;;;;11.90;1.50;;;7.50;99.90;;;;;;5040642;28;20024;-37
2024/03/24 10:47:12;;;;;;;15.95;1.88;;;7.60;99.90;;;;;;5052383;28;20493;-37
2024/03/24 10:49:41;;;;;;;15.25;1.52;;;7.60;99.90;;;;;;5050327;28;20051;-37
2024/03/24 10:52:09;;;;;;;9.73;1.60;;;7.60;99.90;;;;;;5051150;28;20033;-38
2024/03/24 10:54:35;;;;;;;6.95;2.08;;;7.70;99.90;;;;;;5052177;28;20075;-38
2024/03/24 10:57:05;;;;;;;7.43;1.58;;;7.80;99.90;;;;;;5051009;28;20037;-40
2024/03/24 10:59:31;;;;;;;5.32;1.30;;;7.80;99.90;;;;;;5048166;28;20540;-38
2024/03/24 11:01:58;;;;;;;9.82;1.85;;;7.80;99.90;;;;;;5045597;28;20029;-38
2024/03/24 11:04:26;;;;;;;20.95;2.10;;;7.80;99.90;;;;;;5051666;28;20100;-39
2024/03/24 11:06:52;;;;;;;9.43;1.40;;;7.90;99.90;;;;;;5051532;28;20032;-41
2024/03/24 11:09:17;;;;;;;11.13;1.30;;;7.80;99.90;;;;;;5036986;28;20029;-40
2024/03/24 11:11:43;;;;;;;14.35;2.17;;;7.90;99.90;;;;;;5050320;28;20376;-42
2024/03/24 11:14:11;;;;;;;17.13;1.33;;;7.90;99.90;;;;;;5049521;28;20485;-38
2024/03/24 11:16:36;;;;;;;7.45;1.55;;;8.00;99.90;;;;;;5046850;28;20521;-43
2024/03/24 11:19:07;;;;;;;17.00;1.83;;;7.80;99.90;;;;;;5051052;28;20051;-41
2024/03/24 11:21:39;;;;;;;13.15;1.33;;;7.60;99.90;;;;;;5047918;28;20022;-38
2024/03/24 11:24:22;;;;;;;3.92;0.57;;;7.60;99.90;;;;;;5050954;28;20075;-42
2024/03/24 11:26:48;;;;;;;6.18;0.63;;;7.60;99.90;;;;;;5047355;28;20501;-54
2024/03/24 11:30:00;;;;;;;4.18;0.60;;;7.60;99.90;;;;;;5050451;28;20013;-49
2024/03/24 11:32:51;;;;;;;10.45;1.27;;;7.60;99.90;;;;;;5037254;28;20044;-54
2024/03/24 11:35:36;;;;;;;7.45;1.42;;;7.60;99.90;;;;;;5045634;28;20017;-49
2024/03/24 11:38:05;;;;;;;14.70;1.90;;;7.60;99.90;;;;;;5035045;28;20116;-55
2024/03/24 11:40:31;;;;;;;7.72;1.45;;;7.50;99.90;;;;;;5046697;28;20024;-52
2024/03/24 11:42:57;;;;;;;9.80;1.90;;;7.60;99.90;;;;;;5048881;28;20452;-53
2024/03/24 11:45:26;;;;;;;14.10;1.83;;;7.80;99.90;;;;;;5046628;28;20462;-52
2024/03/24 11:48:12;;;;;;;10.23;1.55;;;8.20;99.90;;;;;;5047058;28;20533;-52
2024/03/24 11:50:38;;;;;;;9.68;1.75;;;8.40;99.90;;;;;;5033656;28;20025;-38
2024/03/24 11:53:05;;;;;;;15.65;2.28;;;8.70;99.90;;;;;;5045997;28;20020;-38
2024/03/24 11:55:32;;;;;;;14.45;1.55;;;9.00;99.90;;;;;;5050380;28;20034;-38
2024/03/24 11:57:59;;;;;;;9.20;2.28;;;9.30;99.90;;;;;;5046693;28;20054;-38
2024/03/24 12:00:24;;;;;;;15.90;3.20;;;9.30;99.90;;;;;;5050593;28;20052;-39
2024/03/24 12:02:50;;;;;;;8.60;1.25;;;9.00;99.90;;;;;;5048829;28;20033;-42
2024/03/24 12:05:15;;;;;;;17.90;1.58;;;8.70;99.90;;;;;;5051458;28;20021;-39
2024/03/24 12:07:41;;;;;;;10.35;1.83;;;8.70;99.90;;;;;;5051876;28;20139;-39
2024/03/24 12:10:08;;;;;;;10.02;1.80;;;8.80;99.90;;;;;;5051479;28;20021;-42
2024/03/24 12:12:34;;;;;;;9.45;1.65;;;9.10;99.90;;;;;;5051207;28;20029;-40
2024/03/24 12:14:59;;;;;;;4.53;1.17;;;9.10;99.90;;;;;;5040619;28;20060;-41
2024/03/24 12:17:25;;;;;;;10.60;1.45;;;9.20;99.90;;;;;;5050473;28;20413;-43
2024/03/24 12:19:50;;;;;;;7.90;2.63;;;9.40;99.90;;;;;;5050015;28;20037;-49
2024/03/24 12:22:16;;;;;;;9.82;1.45;;;9.50;99.90;;;;;;5050639;28;20448;-42
2024/03/24 12:24:42;;;;;;;12.55;1.55;;;9.30;99.90;;;;;;5043697;28;20024;-42
2024/03/24 12:27:08;;;;;;;6.43;1.40;;;9.20;99.90;;;;;;5048707;28;20025;-41
2024/03/24 12:29:33;;;;;;;9.93;1.50;;;8.60;99.90;;;;;;5035725;28;20394;-42
2024/03/24 12:31:59;;;;;;;3.88;1.20;;;8.20;99.90;;;;;;5052160;28;20559;-41
2024/03/24 12:34:26;;;;;;;8.68;1.35;;;8.10;99.90;;;;;;5055118;28;20052;-52
2024/03/24 12:36:53;;;;;;;9.07;3.08;;;8.20;99.90;;;;;;5039167;28;20377;-53
2024/03/24 12:39:19;;;;;;;26.55;2.05;;;8.20;99.90;;;;;;5055188;28;20567;-63
2024/03/24 12:41:44;;;;;;;14.25;2.90;;;8.20;99.90;;;;;;5054899;28;20053;-52
2024/03/24 12:44:12;;;;;;;14.70;2.35;;;8.40;99.90;;;;;;5054439;28;20508;-54
2024/03/24 12:46:39;;;;;;;16.17;2.40;;;8.60;99.90;;;;;;5056073;28;20029;-54
2024/03/24 12:49:17;;;;;;;7.18;2.03;;;8.70;99.90;;;;;;5054815;28;20025;-54